»·PEaware :: N62GD KAJO-KVCV

N62GD :: KAJO-KVCV

FLIGHT INFORMATION

Flight Status: Arrived
Operator: Privately registered:
United States
More flights under this callsign
Pilot: Andrew S. (20703)
Aircraft: PILATUS PC-12 EAGLE
(PC12)
More flights by this aircraft type
Origin: KAJO Corona Mun
United States
Destination: KVCV Socal Logistics
United States
More flights between these airports :: More routes between these airports
Route: ODP PDZ V442 APLES
File this flight plan on PilotEdge
Remarks: ATTEMPT I-11
Altitude:
(Current/Filed)
9,000ft
Speed:
(Current/Filed)
225kts
Departed: 20-Dec-18 08:11 PM
Arrived: 20-Dec-18 08:58 PM
Distance/Time
Traveled:
43nm/0:47
Distance/Time
To Go:
Arrived

Flight Plot

Page will automatically refresh every two minutes.

Flight plan parsing failed; only flown route is shown


Map Options




Map Legend


Flown Route
Filed Route
Departure Airport
Arrival Airport
Navaid (VOR, NDB)
Fix

Horizontal Profiles

Position Reports

Time Latitude Longitude Heading Altitude Ground
Speed
20-Dec-18 19:43 33.896007 -117.603813 87 537ft 0kts
20-Dec-18 19:44 33.896007 -117.603813 87 537ft 0kts
20-Dec-18 19:45 33.896007 -117.603813 86 537ft 0kts
20-Dec-18 19:46 33.896007 -117.603813 86 537ft 0kts
20-Dec-18 19:47 33.896007 -117.603813 86 537ft 0kts
20-Dec-18 19:48 33.896007 -117.603813 86 537ft 0kts
20-Dec-18 19:49 33.897091 -117.603594 353 537ft 3kts
20-Dec-18 19:50 33.897129 -117.603599 351 537ft 0kts
20-Dec-18 19:51 33.897130 -117.603599 351 537ft 0kts
20-Dec-18 19:52 33.897132 -117.603599 350 537ft 0kts
20-Dec-18 19:53 33.897132 -117.603599 350 537ft 0kts
20-Dec-18 19:54 33.897132 -117.603599 350 537ft 0kts
20-Dec-18 19:55 33.897132 -117.603599 350 537ft 0kts
20-Dec-18 19:56 33.897132 -117.603599 350 537ft 0kts
20-Dec-18 19:57 33.897132 -117.603599 350 537ft 0kts
20-Dec-18 19:58 33.897132 -117.603599 350 537ft 0kts
20-Dec-18 19:59 33.897132 -117.603599 350 537ft 0kts
20-Dec-18 20:00 33.897132 -117.603599 350 537ft 0kts
20-Dec-18 20:01 33.897132 -117.603599 350 537ft 0kts
20-Dec-18 20:02 33.897284 -117.601236 90 537ft 19kts
20-Dec-18 20:04 33.897319 -117.597763 85 537ft 0kts
20-Dec-18 20:05 33.897319 -117.597757 85 537ft 0kts
20-Dec-18 20:06 33.897319 -117.597757 85 537ft 0kts
20-Dec-18 20:07 33.897320 -117.597744 84 537ft 0kts
20-Dec-18 20:08 33.897320 -117.597744 84 537ft 0kts
20-Dec-18 20:09 33.897728 -117.597781 273 537ft 1kts
20-Dec-18 20:10 33.896303 -117.627336 278 1771ft 130kts
20-Dec-18 20:11 33.925314 -117.641338 32 4029ft 169kts
20-Dec-18 20:12 33.926139 -117.579827 97 5902ft 192kts
20-Dec-18 20:13 33.930265 -117.525354 26 8587ft 171kts
20-Dec-18 20:14 33.975281 -117.496748 20 10244ft 221kts
20-Dec-18 20:15 34.040793 -117.456836 22 9119ft 259kts
20-Dec-18 20:16 34.101491 -117.420200 21 9146ft 237kts
20-Dec-18 20:17 34.159374 -117.385302 21 9153ft 231kts
20-Dec-18 20:18 34.217592 -117.350217 21 9158ft 237kts
20-Dec-18 20:19 34.276293 -117.314747 22 9158ft 237kts
20-Dec-18 20:20 34.336248 -117.278463 22 8990ft 240kts
20-Dec-18 20:21 34.395400 -117.242615 22 8993ft 236kts
20-Dec-18 20:22 34.453606 -117.207381 21 8995ft 233kts
20-Dec-18 20:23 34.511401 -117.172207 22 9000ft 232kts
20-Dec-18 20:24 34.569907 -117.144576 1 8995ft 226kts
20-Dec-18 20:25 34.634550 -117.147806 345 7993ft 231kts
20-Dec-18 20:26 34.693186 -117.174102 329 6988ft 217kts
20-Dec-18 20:27 34.738351 -117.215740 314 6604ft 188kts
20-Dec-18 20:28 34.768729 -117.263359 301 6604ft 173kts
20-Dec-18 20:29 34.788307 -117.316610 289 6306ft 184kts
20-Dec-18 20:30 34.789758 -117.380316 221 5326ft 213kts
20-Dec-18 20:31 34.730369 -117.378519 183 4370ft 215kts
20-Dec-18 20:32 34.686903 -117.381944 186 4060ft 101kts
20-Dec-18 20:33 34.657334 -117.384512 184 3586ft 125kts
20-Dec-18 20:34 34.619410 -117.387738 184 3274ft 154kts
20-Dec-18 20:35 34.585272 -117.411008 266 3806ft 173kts
20-Dec-18 20:36 34.588174 -117.466036 302 4483ft 160kts
20-Dec-18 20:37 34.615378 -117.515628 289 5798ft 201kts
20-Dec-18 20:38 34.630566 -117.588852 284 6009ft 242kts
20-Dec-18 20:39 34.645725 -117.667882 284 6003ft 230kts
20-Dec-18 20:40 34.659812 -117.741586 284 5999ft 220kts
20-Dec-18 20:41 34.640074 -117.797820 179 6008ft 217kts
20-Dec-18 20:43 34.608362 -117.739032 99 6005ft 235kts
20-Dec-18 20:44 34.609027 -117.663499 34 6020ft 227kts
20-Dec-18 20:45 34.647816 -117.698427 287 6005ft 218kts
20-Dec-18 20:46 34.665309 -117.769025 283 5996ft 219kts
20-Dec-18 20:47 34.626061 -117.794070 139 6009ft 223kts
20-Dec-18 20:48 34.616578 -117.719901 79 6005ft 234kts
20-Dec-18 20:49 34.611583 -117.642873 85 6019ft 235kts
20-Dec-18 20:50 34.620644 -117.562710 79 5585ft 240kts
20-Dec-18 20:51 34.659092 -117.511757 24 5098ft 208kts
20-Dec-18 20:52 34.709192 -117.488836 38 4580ft 186kts
20-Dec-18 20:53 34.727256 -117.432527 85 4080ft 177kts
20-Dec-18 20:54 34.713933 -117.386994 161 4014ft 146kts
20-Dec-18 20:55 34.679739 -117.386917 178 4051ft 116kts
20-Dec-18 20:56 34.648510 -117.386552 178 3499ft 95kts
20-Dec-18 20:57 34.623349 -117.386783 180 2980ft 84kts
20-Dec-18 20:58 34.610457 -117.384500 127 2888ft 8kts
20-Dec-18 20:59 34.610433 -117.384467 131 2888ft 0kts
20-Dec-18 21:00 34.606983 -117.384132 177 2888ft 26kts
20-Dec-18 21:01 34.599867 -117.384070 177 2888ft 28kts
20-Dec-18 21:02 34.592604 -117.381246 135 2888ft 29kts
20-Dec-18 21:03 34.589116 -117.376143 94 2888ft 0kts
20-Dec-18 21:03 34.589115 -117.376141 94 2888ft 0kts
20-Dec-18 21:04 34.589115 -117.376141 94 2888ft 0kts

Navigation Log

Ident Type
Flight plan parsing failed, navigation log unavailable